Emine Anne — TCBX9 — position and weather

sailwx.info

Track history (hours):
 
Tides and Currents Weather Stations Pressure Air Temp Water Temp Dewpoint Dewpoint Depression Visibility Wind Speed Wind Dir Waves Ship Positions

Emine Anne

Last reported at 2014-Oct-31 00:28 UTC. Time now 2014-Nov-01 04:43 UTC.
Position N 40°57' E 028°53'.

Length 69 m; draft 4 m.

Type: Ship. MMSI: 271002305.

Date/timePositionNaut miles runAvg speedWind from/ knotsBaromVisibWave heightAir tempDewpointWater temp
2014-Oct-31 00:28N 40°57' E 028°53'4 0.4
2014-Oct-30 16:16N 40°57' E 028°58'7 8.4
2014-Oct-30 15:30N 40°54' E 029°06'5 4.9
2014-Oct-30 14:33N 40°53' E 029°12'0 0.0
2014-Oct-30 13:33N 40°53' E 029°12'1 1.2
2014-Oct-30 12:33N 40°51' E 029°12'1 1.1
2014-Oct-30 11:33N 40°53' E 029°12'3 3.5
2014-Oct-30 10:33N 40°49' E 029°13'8 8.2
2014-Oct-30 09:32N 40°45' E 029°23'5 0.2
2014-Oct-29 12:12N 40°46' E 029°29'3 0.2
2014-Oct-28 15:24N 40°45' E 029°25'7 8.8
2014-Oct-28 14:33N 40°47' E 029°15'4 4.2
2014-Oct-28 13:32N 40°51' E 029°17'0 0.0
2014-Oct-28 12:27N 40°51' E 029°17'0 0.0
2014-Oct-28 11:24N 40°51' E 029°17'0 0.0
2014-Oct-28 10:26N 40°51' E 029°17'0 0.0
2014-Oct-28 09:32N 40°51' E 029°17'0 0.0
2014-Oct-28 08:24N 40°51' E 029°17'0 0.0
2014-Oct-28 07:32N 40°51' E 029°17'0 0.0
2014-Oct-28 06:26N 40°51' E 029°17'0 0.0
2014-Oct-28 05:30N 40°51' E 029°17'0 0.0
2014-Oct-28 04:29N 40°51' E 029°17'0 0.0
2014-Oct-28 03:32N 40°51' E 029°17'0 0.0
2014-Oct-28 02:33N 40°51' E 029°17'0 0.0
2014-Oct-28 01:28N 40°51' E 029°17'0 0.0
2014-Oct-28 00:12N 40°51' E 029°17'0 0.0
2014-Oct-27 23:29N 40°51' E 029°17'0 0.0
2014-Oct-27 22:27N 40°51' E 029°17'0 0.0
2014-Oct-26 17:31N 40°51' E 029°17'0 0.0
2014-Oct-26 16:32N 40°51' E 029°17'0 0.0
2014-Oct-26 15:25N 40°51' E 029°17'0 0.0
2014-Oct-26 14:28N 40°51' E 029°17'0 0.0
2014-Oct-26 13:06N 40°51' E 029°17'0 0.0
2014-Oct-26 12:26N 40°51' E 029°17'0 0.0
2014-Oct-26 11:32N 40°51' E 029°17'0 0.0
2014-Oct-26 10:32N 40°51' E 029°17'0 0.0
2014-Oct-26 09:32N 40°51' E 029°17'0 0.0
2014-Oct-26 08:33N 40°51' E 029°17'0 0.0
2014-Oct-26 07:21N 40°51' E 029°17'0 0.0
2014-Oct-26 06:18N 40°51' E 029°17'0 0.0
2014-Oct-26 05:31N 40°51' E 029°17'0 0.0
2014-Oct-26 04:26N 40°51' E 029°17'0 0.0
2014-Oct-26 03:28N 40°51' E 029°17'0 0.0
2014-Oct-26 02:33N 40°51' E 029°17'0 0.0
2014-Oct-26 01:31N 40°51' E 029°17'0 0.0
2014-Oct-26 00:19N 40°51' E 029°17'0 0.0
2014-Oct-25 23:29N 40°51' E 029°17'0 0.0
2014-Oct-25 22:28N 40°51' E 029°17'0 0.0
2014-Oct-25 21:29N 40°51' E 029°17'0 0.0
2014-Oct-25 19:25N 40°51' E 029°17'0 0.0
2014-Oct-25 18:32N 40°51' E 029°17'0 0.0
2014-Oct-25 17:33N 40°51' E 029°17'0 0.0
2014-Oct-25 16:33N 40°51' E 029°17'0 0.0
2014-Oct-25 15:06N 40°51' E 029°17'0 0.0
2014-Oct-25 14:26N 40°51' E 029°17'0 0.0
2014-Oct-25 13:31N 40°51' E 029°17'0 0.0
2014-Oct-25 12:30N 40°51' E 029°17'0 0.0
2014-Oct-25 11:11N 40°51' E 029°17'0 0.0
2014-Oct-25 10:26N 40°51' E 029°17'0 0.0
2014-Oct-25 09:28N 40°51' E 029°17'0 0.0
2014-Oct-25 08:28N 40°51' E 029°17'0 0.2
2014-Oct-25 07:31N 40°51' E 029°17'0 0.2
2014-Oct-25 06:28N 40°51' E 029°17'0 0.0
2014-Oct-25 05:31N 40°51' E 029°17'0 0.0
2014-Oct-25 04:28N 40°51' E 029°17'0 0.0
2014-Oct-25 03:32N 40°51' E 029°17'0 0.0
2014-Oct-25 02:28N 40°51' E 029°17'0 0.0
2014-Oct-25 01:27N 40°51' E 029°17'0 0.0
2014-Oct-25 00:18N 40°51' E 029°17'0 0.0
2014-Oct-24 23:30N 40°51' E 029°17'0 0.0
2014-Oct-24 22:30N 40°51' E 029°17'0 0.0
2014-Oct-24 21:29N 40°51' E 029°17'0 0.0
2014-Oct-24 20:27N 40°51' E 029°17'0 0.0
2014-Oct-24 19:30N 40°51' E 029°17'0 0.0
2014-Oct-24 18:19N 40°51' E 029°17'0 0.0
2014-Oct-24 17:18N 40°51' E 029°17'0 0.0
2014-Oct-24 16:32N 40°51' E 029°17'0 0.0
2014-Oct-24 15:29N 40°51' E 029°17'0 0.0
2014-Oct-24 14:27N 40°51' E 029°17'0 0.0
2014-Oct-24 12:29N 40°51' E 029°17'0 0.0
2014-Oct-24 11:30N 40°51' E 029°17'0 0.0
2014-Oct-24 10:26N 40°51' E 029°17'0 0.0
2014-Oct-24 09:30N 40°51' E 029°17'0 0.0
2014-Oct-24 08:27N 40°51' E 029°17'0 0.0
2014-Oct-24 07:33N 40°51' E 029°17'0 0.0
2014-Oct-24 06:33N 40°51' E 029°17'0 0.0
2014-Oct-24 05:24N 40°51' E 029°17'0 0.0
2014-Oct-23 19:25N 40°51' E 029°17'0 0.0
2014-Oct-23 18:21N 40°51' E 029°17'0 0.0
2014-Oct-23 17:09N 40°51' E 029°17'0 0.0
2014-Oct-23 16:33N 40°51' E 029°17'0 0.0
2014-Oct-23 15:26N 40°51' E 029°17'0 0.0
2014-Oct-23 14:21N 40°51' E 029°17'0 0.0
2014-Oct-23 13:32N 40°51' E 029°17'0 0.0
2014-Oct-23 12:29N 40°51' E 029°17'0 0.0
2014-Oct-23 11:33N 40°51' E 029°17'0 0.0
2014-Oct-23 10:30N 40°51' E 029°17'0 0.0
2014-Oct-23 09:33N 40°51' E 029°17'0 0.0
2014-Oct-23 08:29N 40°51' E 029°17'0 0.0
2014-Oct-23 07:28N 40°51' E 029°17'0 0.0
2014-Oct-23 06:27N 40°51' E 029°17'0 0.0
2014-Oct-23 05:31N 40°51' E 029°17'0 0.0
2014-Oct-23 03:33N 40°51' E 029°17'0 0.0
2014-Oct-23 02:28N 40°51' E 029°17'0 0.0
2014-Oct-23 01:30N 40°51' E 029°17'0 0.0
2014-Oct-23 00:21N 40°51' E 029°17'0 0.0
2014-Oct-22 23:23N 40°51' E 029°17'0 0.0
2014-Oct-22 22:18N 40°51' E 029°17'0 0.0
2014-Oct-22 21:30N 40°51' E 029°17'0 0.0
2014-Oct-22 20:33N 40°51' E 029°17'0 0.0
2014-Oct-22 19:31N 40°51' E 029°17'0 0.0
2014-Oct-22 18:24N 40°51' E 029°17'0 0.0
2014-Oct-22 17:30N 40°51' E 029°17'0 0.0
2014-Oct-22 16:33N 40°51' E 029°17'0 0.0
2014-Oct-22 15:22N 40°51' E 029°17'0 0.0
2014-Oct-22 14:12N 40°51' E 029°17'0 0.0
2014-Oct-22 13:21N 40°51' E 029°17'0 0.0
2014-Oct-22 12:30N 40°51' E 029°17'0 0.0
2014-Oct-22 11:28N 40°51' E 029°17'0 0.0
2014-Oct-22 10:21N 40°51' E 029°17'0 0.0
2014-Oct-22 09:33N 40°51' E 029°17'0 0.0
2014-Oct-22 08:30N 40°51' E 029°17'0 0.0
2014-Oct-22 07:25N 40°51' E 029°17'0 0.0
2014-Oct-22 06:18N 40°51' E 029°17'0 0.0
2014-Oct-22 05:06N 40°51' E 029°17'0 0.0
2014-Oct-22 04:26N 40°51' E 029°17'0 0.0
2014-Oct-22 03:31N 40°51' E 029°17'0 0.0
2014-Oct-22 02:28N 40°51' E 029°17'0 0.0
2014-Oct-22 01:27N 40°51' E 029°17'0 0.0
2014-Oct-22 00:28N 40°51' E 029°17'0 0.0
2014-Oct-21 23:31N 40°51' E 029°17'0 0.0
2014-Oct-21 22:18N 40°51' E 029°17'0 0.0
2014-Oct-21 21:33N 40°51' E 029°17'0 0.0
2014-Oct-21 20:33N 40°51' E 029°17'0 0.0
2014-Oct-21 19:31N 40°51' E 029°17'0 0.0
2014-Oct-21 17:09N 40°51' E 029°17'0 0.0
2014-Oct-21 16:30N 40°51' E 029°17'0 0.0
2014-Oct-21 15:32N 40°51' E 029°17'0 0.0
2014-Oct-21 14:31N 40°51' E 029°17'0 0.0
2014-Oct-21 13:29N 40°51' E 029°17'0 0.0
2014-Oct-21 12:33N 40°51' E 029°17'0 0.0
2014-Oct-21 11:12N 40°51' E 029°17'0 0.0
2014-Oct-21 10:29N 40°51' E 029°17'0 0.0
2014-Oct-21 09:27N 40°51' E 029°17'0 0.0
2014-Oct-21 08:30N 40°51' E 029°17'0 0.0
2014-Oct-21 07:19N 40°51' E 029°17'0 0.0
2014-Oct-21 06:16N 40°51' E 029°17'0 0.0
2014-Oct-21 05:30N 40°51' E 029°17'0 0.0
2014-Oct-21 04:33N 40°51' E 029°17'0 0.0
2014-Oct-21 03:25N 40°51' E 029°17'0 0.0
2014-Oct-21 02:34N 40°51' E 029°17'0 0.0
2014-Oct-21 01:32N 40°51' E 029°17'  
Track history (hours):
 
Tides and Currents Weather Stations Pressure Air Temp Water Temp Dewpoint Dewpoint Depression Visibility Wind Speed Wind Dir Waves Ship Positions

Emine Anne

Last reported at 2014-Oct-31 00:28 UTC. Time now 2014-Nov-01 04:43 UTC.
Position N 40°57' E 028°53'.

Length 69 m; draft 4 m.

Type: Ship. MMSI: 271002305.

Date/timePositionNaut miles runAvg speedWind from/ knotsBaromVisibWave heightAir tempDewpointWater temp
2014-Oct-31 00:28N 40°57' E 028°53'4 0.4
2014-Oct-30 16:16N 40°57' E 028°58'7 8.4
2014-Oct-30 15:30N 40°54' E 029°06'5 4.9
2014-Oct-30 14:33N 40°53' E 029°12'0 0.0
2014-Oct-30 13:33N 40°53' E 029°12'1 1.2
2014-Oct-30 12:33N 40°51' E 029°12'1 1.1
2014-Oct-30 11:33N 40°53' E 029°12'3 3.5
2014-Oct-30 10:33N 40°49' E 029°13'8 8.2
2014-Oct-30 09:32N 40°45' E 029°23'5 0.2
2014-Oct-29 12:12N 40°46' E 029°29'3 0.2
2014-Oct-28 15:24N 40°45' E 029°25'7 8.8
2014-Oct-28 14:33N 40°47' E 029°15'4 4.2
2014-Oct-28 13:32N 40°51' E 029°17'0 0.0
2014-Oct-28 12:27N 40°51' E 029°17'0 0.0
2014-Oct-28 11:24N 40°51' E 029°17'0 0.0
2014-Oct-28 10:26N 40°51' E 029°17'0 0.0
2014-Oct-28 09:32N 40°51' E 029°17'0 0.0
2014-Oct-28 08:24N 40°51' E 029°17'0 0.0
2014-Oct-28 07:32N 40°51' E 029°17'0 0.0
2014-Oct-28 06:26N 40°51' E 029°17'0 0.0
2014-Oct-28 05:30N 40°51' E 029°17'0 0.0
2014-Oct-28 04:29N 40°51' E 029°17'0 0.0
2014-Oct-28 03:32N 40°51' E 029°17'0 0.0
2014-Oct-28 02:33N 40°51' E 029°17'0 0.0
2014-Oct-28 01:28N 40°51' E 029°17'0 0.0
2014-Oct-28 00:12N 40°51' E 029°17'0 0.0
2014-Oct-27 23:29N 40°51' E 029°17'0 0.0
2014-Oct-27 22:27N 40°51' E 029°17'0 0.0
2014-Oct-26 17:31N 40°51' E 029°17'0 0.0
2014-Oct-26 16:32N 40°51' E 029°17'0 0.0
2014-Oct-26 15:25N 40°51' E 029°17'0 0.0
2014-Oct-26 14:28N 40°51' E 029°17'0 0.0
2014-Oct-26 13:06N 40°51' E 029°17'0 0.0
2014-Oct-26 12:26N 40°51' E 029°17'0 0.0
2014-Oct-26 11:32N 40°51' E 029°17'0 0.0
2014-Oct-26 10:32N 40°51' E 029°17'0 0.0
2014-Oct-26 09:32N 40°51' E 029°17'0 0.0
2014-Oct-26 08:33N 40°51' E 029°17'0 0.0
2014-Oct-26 07:21N 40°51' E 029°17'0 0.0
2014-Oct-26 06:18N 40°51' E 029°17'0 0.0
2014-Oct-26 05:31N 40°51' E 029°17'0 0.0
2014-Oct-26 04:26N 40°51' E 029°17'0 0.0
2014-Oct-26 03:28N 40°51' E 029°17'0 0.0
2014-Oct-26 02:33N 40°51' E 029°17'0 0.0
2014-Oct-26 01:31N 40°51' E 029°17'0 0.0
2014-Oct-26 00:19N 40°51' E 029°17'0 0.0
2014-Oct-25 23:29N 40°51' E 029°17'0 0.0
2014-Oct-25 22:28N 40°51' E 029°17'0 0.0
2014-Oct-25 21:29N 40°51' E 029°17'0 0.0
2014-Oct-25 19:25N 40°51' E 029°17'0 0.0
2014-Oct-25 18:32N 40°51' E 029°17'0 0.0
2014-Oct-25 17:33N 40°51' E 029°17'0 0.0
2014-Oct-25 16:33N 40°51' E 029°17'0 0.0
2014-Oct-25 15:06N 40°51' E 029°17'0 0.0
2014-Oct-25 14:26N 40°51' E 029°17'0 0.0
2014-Oct-25 13:31N 40°51' E 029°17'0 0.0
2014-Oct-25 12:30N 40°51' E 029°17'0 0.0
2014-Oct-25 11:11N 40°51' E 029°17'0 0.0
2014-Oct-25 10:26N 40°51' E 029°17'0 0.0
2014-Oct-25 09:28N 40°51' E 029°17'0 0.0
2014-Oct-25 08:28N 40°51' E 029°17'0 0.2
2014-Oct-25 07:31N 40°51' E 029°17'0 0.2
2014-Oct-25 06:28N 40°51' E 029°17'0 0.0
2014-Oct-25 05:31N 40°51' E 029°17'0 0.0
2014-Oct-25 04:28N 40°51' E 029°17'0 0.0
2014-Oct-25 03:32N 40°51' E 029°17'0 0.0
2014-Oct-25 02:28N 40°51' E 029°17'0 0.0
2014-Oct-25 01:27N 40°51' E 029°17'0 0.0
2014-Oct-25 00:18N 40°51' E 029°17'0 0.0
2014-Oct-24 23:30N 40°51' E 029°17'0 0.0
2014-Oct-24 22:30N 40°51' E 029°17'0 0.0
2014-Oct-24 21:29N 40°51' E 029°17'0 0.0
2014-Oct-24 20:27N 40°51' E 029°17'0 0.0
2014-Oct-24 19:30N 40°51' E 029°17'0 0.0
2014-Oct-24 18:19N 40°51' E 029°17'0 0.0
2014-Oct-24 17:18N 40°51' E 029°17'0 0.0
2014-Oct-24 16:32N 40°51' E 029°17'0 0.0
2014-Oct-24 15:29N 40°51' E 029°17'0 0.0
2014-Oct-24 14:27N 40°51' E 029°17'0 0.0
2014-Oct-24 12:29N 40°51' E 029°17'0 0.0
2014-Oct-24 11:30N 40°51' E 029°17'0 0.0
2014-Oct-24 10:26N 40°51' E 029°17'0 0.0
2014-Oct-24 09:30N 40°51' E 029°17'0 0.0
2014-Oct-24 08:27N 40°51' E 029°17'0 0.0
2014-Oct-24 07:33N 40°51' E 029°17'0 0.0
2014-Oct-24 06:33N 40°51' E 029°17'0 0.0
2014-Oct-24 05:24N 40°51' E 029°17'0 0.0
2014-Oct-23 19:25N 40°51' E 029°17'0 0.0
2014-Oct-23 18:21N 40°51' E 029°17'0 0.0
2014-Oct-23 17:09N 40°51' E 029°17'0 0.0
2014-Oct-23 16:33N 40°51' E 029°17'0 0.0
2014-Oct-23 15:26N 40°51' E 029°17'0 0.0
2014-Oct-23 14:21N 40°51' E 029°17'0 0.0
2014-Oct-23 13:32N 40°51' E 029°17'0 0.0
2014-Oct-23 12:29N 40°51' E 029°17'0 0.0
2014-Oct-23 11:33N 40°51' E 029°17'0 0.0
2014-Oct-23 10:30N 40°51' E 029°17'0 0.0
2014-Oct-23 09:33N 40°51' E 029°17'0 0.0
2014-Oct-23 08:29N 40°51' E 029°17'0 0.0
2014-Oct-23 07:28N 40°51' E 029°17'0 0.0
2014-Oct-23 06:27N 40°51' E 029°17'0 0.0
2014-Oct-23 05:31N 40°51' E 029°17'0 0.0
2014-Oct-23 03:33N 40°51' E 029°17'0 0.0
2014-Oct-23 02:28N 40°51' E 029°17'0 0.0
2014-Oct-23 01:30N 40°51' E 029°17'0 0.0
2014-Oct-23 00:21N 40°51' E 029°17'0 0.0
2014-Oct-22 23:23N 40°51' E 029°17'0 0.0
2014-Oct-22 22:18N 40°51' E 029°17'0 0.0
2014-Oct-22 21:30N 40°51' E 029°17'0 0.0
2014-Oct-22 20:33N 40°51' E 029°17'0 0.0
2014-Oct-22 19:31N 40°51' E 029°17'0 0.0
2014-Oct-22 18:24N 40°51' E 029°17'0 0.0
2014-Oct-22 17:30N 40°51' E 029°17'0 0.0
2014-Oct-22 16:33N 40°51' E 029°17'0 0.0
2014-Oct-22 15:22N 40°51' E 029°17'0 0.0
2014-Oct-22 14:12N 40°51' E 029°17'0 0.0
2014-Oct-22 13:21N 40°51' E 029°17'0 0.0
2014-Oct-22 12:30N 40°51' E 029°17'0 0.0
2014-Oct-22 11:28N 40°51' E 029°17'0 0.0
2014-Oct-22 10:21N 40°51' E 029°17'0 0.0
2014-Oct-22 09:33N 40°51' E 029°17'0 0.0
2014-Oct-22 08:30N 40°51' E 029°17'0 0.0
2014-Oct-22 07:25N 40°51' E 029°17'0 0.0
2014-Oct-22 06:18N 40°51' E 029°17'0 0.0
2014-Oct-22 05:06N 40°51' E 029°17'0 0.0
2014-Oct-22 04:26N 40°51' E 029°17'0 0.0
2014-Oct-22 03:31N 40°51' E 029°17'0 0.0
2014-Oct-22 02:28N 40°51' E 029°17'0 0.0
2014-Oct-22 01:27N 40°51' E 029°17'0 0.0
2014-Oct-22 00:28N 40°51' E 029°17'0 0.0
2014-Oct-21 23:31N 40°51' E 029°17'0 0.0
2014-Oct-21 22:18N 40°51' E 029°17'0 0.0
2014-Oct-21 21:33N 40°51' E 029°17'0 0.0
2014-Oct-21 20:33N 40°51' E 029°17'0 0.0
2014-Oct-21 19:31N 40°51' E 029°17'0 0.0
2014-Oct-21 17:09N 40°51' E 029°17'0 0.0
2014-Oct-21 16:30N 40°51' E 029°17'0 0.0
2014-Oct-21 15:32N 40°51' E 029°17'0 0.0
2014-Oct-21 14:31N 40°51' E 029°17'0 0.0
2014-Oct-21 13:29N 40°51' E 029°17'0 0.0
2014-Oct-21 12:33N 40°51' E 029°17'0 0.0
2014-Oct-21 11:12N 40°51' E 029°17'0 0.0
2014-Oct-21 10:29N 40°51' E 029°17'0 0.0
2014-Oct-21 09:27N 40°51' E 029°17'0 0.0
2014-Oct-21 08:30N 40°51' E 029°17'0 0.0
2014-Oct-21 07:19N 40°51' E 029°17'0 0.0
2014-Oct-21 06:16N 40°51' E 029°17'0 0.0
2014-Oct-21 05:30N 40°51' E 029°17'0 0.0
2014-Oct-21 04:33N 40°51' E 029°17'0 0.0
2014-Oct-21 03:25N 40°51' E 029°17'0 0.0
2014-Oct-21 02:34N 40°51' E 029°17'0 0.0
2014-Oct-21 01:32N 40°51' E 029°17'  

Dump ship's entire track history